sensor_id;sensor_type;location;lat;lon;timestamp;temperature;humidity
14682;DHT22;7429;52.498;13.480;2023-09-19T00:01:19;18.70;99.90
14682;DHT22;7429;52.498;13.480;2023-09-19T00:04:22;18.70;99.90
14682;DHT22;7429;52.498;13.480;2023-09-19T00:07:30;18.70;99.90
14682;DHT22;7429;52.498;13.480;2023-09-19T00:10:37;18.70;99.90
14682;DHT22;7429;52.498;13.480;2023-09-19T00:13:43;18.70;99.90
14682;DHT22;7429;52.498;13.480;2023-09-19T00:16:46;18.70;99.90
14682;DHT22;7429;52.498;13.480;2023-09-19T00:19:52;18.60;99.90
14682;DHT22;7429;52.498;13.480;2023-09-19T00:22:55;18.60;99.90
14682;DHT22;7429;52.498;13.480;2023-09-19T00:26:00;18.60;99.90
14682;DHT22;7429;52.498;13.480;2023-09-19T00:29:08;18.60;99.90
14682;DHT22;7429;52.498;13.480;2023-09-19T00:32:12;18.60;99.90
14682;DHT22;7429;52.498;13.480;2023-09-19T00:35:16;18.50;99.90
14682;DHT22;7429;52.498;13.480;2023-09-19T00:38:22;18.50;99.90
14682;DHT22;7429;52.498;13.480;2023-09-19T00:41:28;18.50;99.90
14682;DHT22;7429;52.498;13.480;2023-09-19T00:44:33;18.50;99.90
14682;DHT22;7429;52.498;13.480;2023-09-19T00:47:41;18.40;99.90
14682;DHT22;7429;52.498;13.480;2023-09-19T00:50:46;18.40;99.90
14682;DHT22;7429;52.498;13.480;2023-09-19T00:53:51;18.30;99.90
14682;DHT22;7429;52.498;13.480;2023-09-19T00:56:54;18.30;99.90
14682;DHT22;7429;52.498;13.480;2023-09-19T01:00:00;18.30;99.90
14682;DHT22;7429;52.498;13.480;2023-09-19T01:03:07;18.30;99.90
14682;DHT22;7429;52.498;13.480;2023-09-19T01:06:11;18.30;99.90
14682;DHT22;7429;52.498;13.480;2023-09-19T01:09:15;18.20;99.90
14682;DHT22;7429;52.498;13.480;2023-09-19T01:12:24;18.20;99.90
14682;DHT22;7429;52.498;13.480;2023-09-19T01:15:43;18.20;99.90
14682;DHT22;7429;52.498;13.480;2023-09-19T01:19:01;18.20;99.90
14682;DHT22;7429;52.498;13.480;2023-09-19T01:22:19;18.20;99.90
14682;DHT22;7429;52.498;13.480;2023-09-19T01:29:26;18.10;99.90
14682;DHT22;7429;52.498;13.480;2023-09-19T01:32:42;18.10;99.90
14682;DHT22;7429;52.498;13.480;2023-09-19T01:35:46;18.10;99.90
14682;DHT22;7429;52.498;13.480;2023-09-19T01:38:49;18.10;99.90
14682;DHT22;7429;52.498;13.480;2023-09-19T01:42:02;18.10;99.90
14682;DHT22;7429;52.498;13.480;2023-09-19T01:45:12;18.20;99.90
14682;DHT22;7429;52.498;13.480;2023-09-19T01:48:25;18.20;99.90
14682;DHT22;7429;52.498;13.480;2023-09-19T01:51:37;18.20;99.90
14682;DHT22;7429;52.498;13.480;2023-09-19T01:54:59;18.20;99.90
14682;DHT22;7429;52.498;13.480;2023-09-19T01:58:16;18.20;99.90
14682;DHT22;7429;52.498;13.480;2023-09-19T02:01:24;18.20;99.90
14682;DHT22;7429;52.498;13.480;2023-09-19T02:04:30;18.20;99.90
14682;DHT22;7429;52.498;13.480;2023-09-19T02:07:35;18.20;99.90
14682;DHT22;7429;52.498;13.480;2023-09-19T02:10:40;18.20;99.90
14682;DHT22;7429;52.498;13.480;2023-09-19T02:13:43;18.20;99.90
14682;DHT22;7429;52.498;13.480;2023-09-19T02:16:46;18.20;99.90
14682;DHT22;7429;52.498;13.480;2023-09-19T02:19:54;18.10;99.90
14682;DHT22;7429;52.498;13.480;2023-09-19T02:22:58;18.10;99.90
14682;DHT22;7429;52.498;13.480;2023-09-19T02:26:01;18.00;99.90
14682;DHT22;7429;52.498;13.480;2023-09-19T02:29:07;18.00;99.90
14682;DHT22;7429;52.498;13.480;2023-09-19T02:32:12;18.00;99.90
14682;DHT22;7429;52.498;13.480;2023-09-19T02:35:17;18.10;99.90
14682;DHT22;7429;52.498;13.480;2023-09-19T02:38:21;18.00;99.90
14682;DHT22;7429;52.498;13.480;2023-09-19T02:41:26;18.00;99.90
14682;DHT22;7429;52.498;13.480;2023-09-19T02:44:31;18.00;99.90
14682;DHT22;7429;52.498;13.480;2023-09-19T02:47:34;18.00;99.90
14682;DHT22;7429;52.498;13.480;2023-09-19T02:50:39;18.00;99.90
14682;DHT22;7429;52.498;13.480;2023-09-19T02:53:42;17.90;99.90
14682;DHT22;7429;52.498;13.480;2023-09-19T02:56:45;17.90;99.90
14682;DHT22;7429;52.498;13.480;2023-09-19T02:59:49;17.90;99.90
14682;DHT22;7429;52.498;13.480;2023-09-19T03:02:54;18.00;99.90
14682;DHT22;7429;52.498;13.480;2023-09-19T03:05:59;17.90;99.90
14682;DHT22;7429;52.498;13.480;2023-09-19T03:09:06;17.90;99.90
14682;DHT22;7429;52.498;13.480;2023-09-19T03:12:14;18.00;99.90
14682;DHT22;7429;52.498;13.480;2023-09-19T03:15:18;18.00;99.90
14682;DHT22;7429;52.498;13.480;2023-09-19T03:18:23;18.00;99.90
14682;DHT22;7429;52.498;13.480;2023-09-19T03:21:30;18.00;99.90
14682;DHT22;7429;52.498;13.480;2023-09-19T03:24:33;18.00;99.90
14682;DHT22;7429;52.498;13.480;2023-09-19T03:27:39;18.10;99.90
14682;DHT22;7429;52.498;13.480;2023-09-19T03:30:44;18.10;99.90
14682;DHT22;7429;52.498;13.480;2023-09-19T03:33:47;18.10;99.90
14682;DHT22;7429;52.498;13.480;2023-09-19T03:36:51;18.10;99.90
14682;DHT22;7429;52.498;13.480;2023-09-19T03:39:55;18.10;99.90
14682;DHT22;7429;52.498;13.480;2023-09-19T03:43:00;18.10;99.90
14682;DHT22;7429;52.498;13.480;2023-09-19T03:46:04;18.20;99.90
14682;DHT22;7429;52.498;13.480;2023-09-19T03:49:08;18.10;99.90
14682;DHT22;7429;52.498;13.480;2023-09-19T03:52:13;18.10;99.90
14682;DHT22;7429;52.498;13.480;2023-09-19T03:55:17;18.10;99.90
14682;DHT22;7429;52.498;13.480;2023-09-19T03:58:20;18.10;99.90
14682;DHT22;7429;52.498;13.480;2023-09-19T04:01:24;18.10;99.90
14682;DHT22;7429;52.498;13.480;2023-09-19T04:04:29;18.10;99.90
14682;DHT22;7429;52.498;13.480;2023-09-19T04:07:35;18.10;99.90
14682;DHT22;7429;52.498;13.480;2023-09-19T04:10:38;18.10;99.90
14682;DHT22;7429;52.498;13.480;2023-09-19T04:13:41;18.10;99.90
14682;DHT22;7429;52.498;13.480;2023-09-19T04:16:44;18.00;99.90
14682;DHT22;7429;52.498;13.480;2023-09-19T04:19:48;17.90;99.90
14682;DHT22;7429;52.498;13.480;2023-09-19T04:22:52;17.90;99.90
14682;DHT22;7429;52.498;13.480;2023-09-19T04:25:59;17.90;99.90
14682;DHT22;7429;52.498;13.480;2023-09-19T04:29:03;17.90;99.90
14682;DHT22;7429;52.498;13.480;2023-09-19T04:32:08;17.90;99.90
14682;DHT22;7429;52.498;13.480;2023-09-19T04:35:11;18.00;99.90
14682;DHT22;7429;52.498;13.480;2023-09-19T04:38:16;18.00;99.90
14682;DHT22;7429;52.498;13.480;2023-09-19T04:41:20;17.90;99.90
14682;DHT22;7429;52.498;13.480;2023-09-19T04:44:24;18.00;99.90
14682;DHT22;7429;52.498;13.480;2023-09-19T04:47:27;18.00;99.90
14682;DHT22;7429;52.498;13.480;2023-09-19T04:50:30;17.90;99.90
14682;DHT22;7429;52.498;13.480;2023-09-19T04:53:34;17.90;99.90
14682;DHT22;7429;52.498;13.480;2023-09-19T04:56:52;17.90;99.90
14682;DHT22;7429;52.498;13.480;2023-09-19T04:59:55;17.90;99.90
14682;DHT22;7429;52.498;13.480;2023-09-19T05:02:59;17.90;99.90
14682;DHT22;7429;52.498;13.480;2023-09-19T05:06:04;17.80;99.90
14682;DHT22;7429;52.498;13.480;2023-09-19T05:09:09;17.80;99.90
14682;DHT22;7429;52.498;13.480;2023-09-19T05:12:12;17.80;99.90
14682;DHT22;7429;52.498;13.480;2023-09-19T05:15:15;17.70;99.90
14682;DHT22;7429;52.498;13.480;2023-09-19T05:18:19;17.80;99.90
14682;DHT22;7429;52.498;13.480;2023-09-19T05:21:23;17.80;99.90
14682;DHT22;7429;52.498;13.480;2023-09-19T05:24:28;17.70;99.90
14682;DHT22;7429;52.498;13.480;2023-09-19T05:27:31;17.70;99.90
14682;DHT22;7429;52.498;13.480;2023-09-19T05:30:35;17.70;99.90
14682;DHT22;7429;52.498;13.480;2023-09-19T05:33:40;17.70;99.90
14682;DHT22;7429;52.498;13.480;2023-09-19T05:36:44;17.70;99.90
14682;DHT22;7429;52.498;13.480;2023-09-19T05:39:48;17.70;99.90
14682;DHT22;7429;52.498;13.480;2023-09-19T05:42:51;17.70;99.90
14682;DHT22;7429;52.498;13.480;2023-09-19T05:45:55;17.70;99.90
14682;DHT22;7429;52.498;13.480;2023-09-19T05:48:58;17.60;99.90
14682;DHT22;7429;52.498;13.480;2023-09-19T05:52:01;17.70;99.90
14682;DHT22;7429;52.498;13.480;2023-09-19T05:55:08;17.60;99.90
14682;DHT22;7429;52.498;13.480;2023-09-19T05:58:12;17.60;99.90
14682;DHT22;7429;52.498;13.480;2023-09-19T06:01:16;17.60;99.90
14682;DHT22;7429;52.498;13.480;2023-09-19T06:04:20;17.60;99.90
14682;DHT22;7429;52.498;13.480;2023-09-19T06:07:23;17.60;99.90
14682;DHT22;7429;52.498;13.480;2023-09-19T06:10:39;17.50;99.90
14682;DHT22;7429;52.498;13.480;2023-09-19T06:13:42;17.60;99.90
14682;DHT22;7429;52.498;13.480;2023-09-19T06:16:49;17.60;99.90
14682;DHT22;7429;52.498;13.480;2023-09-19T06:19:52;17.60;99.90
14682;DHT22;7429;52.498;13.480;2023-09-19T06:22:57;17.60;99.90
14682;DHT22;7429;52.498;13.480;2023-09-19T06:26:01;17.60;99.90
14682;DHT22;7429;52.498;13.480;2023-09-19T06:29:05;17.60;99.90
14682;DHT22;7429;52.498;13.480;2023-09-19T06:32:09;17.60;99.90
14682;DHT22;7429;52.498;13.480;2023-09-19T06:35:14;17.60;99.90
14682;DHT22;7429;52.498;13.480;2023-09-19T06:38:19;17.60;99.90
14682;DHT22;7429;52.498;13.480;2023-09-19T06:41:23;17.60;99.90
14682;DHT22;7429;52.498;13.480;2023-09-19T06:44:27;17.70;99.90
14682;DHT22;7429;52.498;13.480;2023-09-19T06:47:31;17.70;99.90
14682;DHT22;7429;52.498;13.480;2023-09-19T06:50:35;17.80;99.90
14682;DHT22;7429;52.498;13.480;2023-09-19T06:53:38;17.80;99.90
14682;DHT22;7429;52.498;13.480;2023-09-19T06:56:44;17.80;99.90
14682;DHT22;7429;52.498;13.480;2023-09-19T06:59:47;17.90;99.90
14682;DHT22;7429;52.498;13.480;2023-09-19T07:02:56;17.90;99.90
14682;DHT22;7429;52.498;13.480;2023-09-19T07:06:01;17.90;99.90
14682;DHT22;7429;52.498;13.480;2023-09-19T07:09:10;18.00;99.90
14682;DHT22;7429;52.498;13.480;2023-09-19T07:12:16;18.00;99.90
14682;DHT22;7429;52.498;13.480;2023-09-19T07:15:19;18.20;99.90
14682;DHT22;7429;52.498;13.480;2023-09-19T07:18:23;18.30;99.90
14682;DHT22;7429;52.498;13.480;2023-09-19T07:21:27;18.50;99.90
14682;DHT22;7429;52.498;13.480;2023-09-19T07:24:30;18.60;99.90
14682;DHT22;7429;52.498;13.480;2023-09-19T07:27:35;18.70;99.90
14682;DHT22;7429;52.498;13.480;2023-09-19T07:30:41;18.80;99.90
14682;DHT22;7429;52.498;13.480;2023-09-19T07:33:45;18.80;99.90
14682;DHT22;7429;52.498;13.480;2023-09-19T07:36:50;18.80;99.90
14682;DHT22;7429;52.498;13.480;2023-09-19T07:39:53;18.80;99.90
14682;DHT22;7429;52.498;13.480;2023-09-19T07:43:00;18.80;99.90
14682;DHT22;7429;52.498;13.480;2023-09-19T07:46:04;18.70;99.90
14682;DHT22;7429;52.498;13.480;2023-09-19T07:49:10;18.80;99.90
14682;DHT22;7429;52.498;13.480;2023-09-19T07:52:14;18.90;99.90
14682;DHT22;7429;52.498;13.480;2023-09-19T07:55:17;18.90;99.90
14682;DHT22;7429;52.498;13.480;2023-09-19T07:58:24;19.00;99.90
14682;DHT22;7429;52.498;13.480;2023-09-19T08:01:27;19.00;99.90
14682;DHT22;7429;52.498;13.480;2023-09-19T08:04:30;19.00;99.90
14682;DHT22;7429;52.498;13.480;2023-09-19T08:07:35;19.00;99.90
14682;DHT22;7429;52.498;13.480;2023-09-19T08:10:39;19.00;99.90
14682;DHT22;7429;52.498;13.480;2023-09-19T08:13:46;18.90;99.90
14682;DHT22;7429;52.498;13.480;2023-09-19T08:16:51;19.00;99.90
14682;DHT22;7429;52.498;13.480;2023-09-19T08:19:54;19.00;99.90
14682;DHT22;7429;52.498;13.480;2023-09-19T08:22:57;19.00;99.90
14682;DHT22;7429;52.498;13.480;2023-09-19T08:26:00;19.10;99.90
14682;DHT22;7429;52.498;13.480;2023-09-19T08:29:09;19.00;99.90
14682;DHT22;7429;52.498;13.480;2023-09-19T08:32:14;18.90;99.90
14682;DHT22;7429;52.498;13.480;2023-09-19T08:35:23;18.90;99.90
14682;DHT22;7429;52.498;13.480;2023-09-19T08:38:27;18.80;99.90
14682;DHT22;7429;52.498;13.480;2023-09-19T08:41:31;18.80;99.90
14682;DHT22;7429;52.498;13.480;2023-09-19T08:44:37;18.80;99.90
14682;DHT22;7429;52.498;13.480;2023-09-19T08:47:46;18.90;99.90
14682;DHT22;7429;52.498;13.480;2023-09-19T08:50:56;19.10;99.90
14682;DHT22;7429;52.498;13.480;2023-09-19T08:54:05;19.00;99.90
14682;DHT22;7429;52.498;13.480;2023-09-19T08:57:11;19.00;99.90
14682;DHT22;7429;52.498;13.480;2023-09-19T09:00:24;19.20;99.90
14682;DHT22;7429;52.498;13.480;2023-09-19T09:03:32;19.30;99.90
14682;DHT22;7429;52.498;13.480;2023-09-19T09:06:36;19.40;99.90
14682;DHT22;7429;52.498;13.480;2023-09-19T09:09:41;19.40;99.90
14682;DHT22;7429;52.498;13.480;2023-09-19T09:12:45;19.50;99.90
14682;DHT22;7429;52.498;13.480;2023-09-19T09:15:53;19.40;99.90
14682;DHT22;7429;52.498;13.480;2023-09-19T09:18:56;19.40;99.90
14682;DHT22;7429;52.498;13.480;2023-09-19T09:22:07;19.50;99.90
14682;DHT22;7429;52.498;13.480;2023-09-19T09:25:12;19.50;99.90
14682;DHT22;7429;52.498;13.480;2023-09-19T09:28:20;19.60;99.90
14682;DHT22;7429;52.498;13.480;2023-09-19T09:31:30;19.80;99.90
14682;DHT22;7429;52.498;13.480;2023-09-19T09:34:33;19.90;99.90
14682;DHT22;7429;52.498;13.480;2023-09-19T09:37:36;20.10;99.90
14682;DHT22;7429;52.498;13.480;2023-09-19T09:40:47;20.30;99.90
14682;DHT22;7429;52.498;13.480;2023-09-19T09:43:55;20.30;99.90
14682;DHT22;7429;52.498;13.480;2023-09-19T09:47:02;20.30;99.90
14682;DHT22;7429;52.498;13.480;2023-09-19T09:50:30;20.60;99.90
14682;DHT22;7429;52.498;13.480;2023-09-19T09:53:46;21.00;99.90
14682;DHT22;7429;52.498;13.480;2023-09-19T09:56:54;21.00;99.90
14682;DHT22;7429;52.498;13.480;2023-09-19T10:00:02;20.80;99.90
14682;DHT22;7429;52.498;13.480;2023-09-19T10:03:30;20.70;99.90
14682;DHT22;7429;52.498;13.480;2023-09-19T10:06:40;20.70;99.90
14682;DHT22;7429;52.498;13.480;2023-09-19T10:09:48;20.90;99.90
14682;DHT22;7429;52.498;13.480;2023-09-19T10:12:58;21.00;99.90
14682;DHT22;7429;52.498;13.480;2023-09-19T10:16:06;20.90;99.90
14682;DHT22;7429;52.498;13.480;2023-09-19T10:19:21;21.00;99.90
14682;DHT22;7429;52.498;13.480;2023-09-19T10:22:28;21.10;99.90
14682;DHT22;7429;52.498;13.480;2023-09-19T10:25:36;21.20;99.90
14682;DHT22;7429;52.498;13.480;2023-09-19T10:28:41;21.30;99.90
14682;DHT22;7429;52.498;13.480;2023-09-19T10:31:53;21.50;99.90
14682;DHT22;7429;52.498;13.480;2023-09-19T10:34:58;21.60;99.90
14682;DHT22;7429;52.498;13.480;2023-09-19T10:38:04;21.60;99.90
14682;DHT22;7429;52.498;13.480;2023-09-19T10:41:14;21.60;99.90
14682;DHT22;7429;52.498;13.480;2023-09-19T10:44:23;21.90;99.90
14682;DHT22;7429;52.498;13.480;2023-09-19T10:47:29;22.10;99.90
14682;DHT22;7429;52.498;13.480;2023-09-19T10:50:40;22.40;99.90
14682;DHT22;7429;52.498;13.480;2023-09-19T10:53:51;22.20;99.90
14682;DHT22;7429;52.498;13.480;2023-09-19T10:56:57;22.10;99.90
14682;DHT22;7429;52.498;13.480;2023-09-19T11:00:03;22.30;99.90
14682;DHT22;7429;52.498;13.480;2023-09-19T11:03:27;22.30;99.90
14682;DHT22;7429;52.498;13.480;2023-09-19T11:06:34;22.40;99.90
14682;DHT22;7429;52.498;13.480;2023-09-19T11:09:45;22.30;99.90
14682;DHT22;7429;52.498;13.480;2023-09-19T11:12:53;22.10;99.90
14682;DHT22;7429;52.498;13.480;2023-09-19T11:16:07;21.90;99.90
14682;DHT22;7429;52.498;13.480;2023-09-19T11:19:12;21.70;99.90
14682;DHT22;7429;52.498;13.480;2023-09-19T11:22:17;21.80;99.90
14682;DHT22;7429;52.498;13.480;2023-09-19T11:25:41;22.00;99.90
14682;DHT22;7429;52.498;13.480;2023-09-19T11:29:26;22.00;99.90
14682;DHT22;7429;52.498;13.480;2023-09-19T11:36:35;22.00;99.90
14682;DHT22;7429;52.498;13.480;2023-09-19T11:39:38;22.10;99.90
14682;DHT22;7429;52.498;13.480;2023-09-19T11:42:43;21.90;99.90
14682;DHT22;7429;52.498;13.480;2023-09-19T11:46:06;21.70;99.90
14682;DHT22;7429;52.498;13.480;2023-09-19T11:49:13;21.70;99.90
14682;DHT22;7429;52.498;13.480;2023-09-19T11:52:22;21.60;99.90
14682;DHT22;7429;52.498;13.480;2023-09-19T11:55:28;21.50;99.90
14682;DHT22;7429;52.498;13.480;2023-09-19T11:58:33;21.40;99.90
14682;DHT22;7429;52.498;13.480;2023-09-19T12:01:43;21.50;99.90
14682;DHT22;7429;52.498;13.480;2023-09-19T12:04:59;21.70;99.90
14682;DHT22;7429;52.498;13.480;2023-09-19T12:08:05;21.80;99.90
14682;DHT22;7429;52.498;13.480;2023-09-19T12:11:15;21.80;99.90
14682;DHT22;7429;52.498;13.480;2023-09-19T12:14:22;21.80;99.90
14682;DHT22;7429;52.498;13.480;2023-09-19T12:17:36;21.80;99.90
14682;DHT22;7429;52.498;13.480;2023-09-19T12:20:43;21.70;99.90
14682;DHT22;7429;52.498;13.480;2023-09-19T12:24:05;21.50;99.90
14682;DHT22;7429;52.498;13.480;2023-09-19T12:27:26;21.60;99.90
14682;DHT22;7429;52.498;13.480;2023-09-19T12:30:29;21.70;99.90
14682;DHT22;7429;52.498;13.480;2023-09-19T12:33:36;21.80;99.90
14682;DHT22;7429;52.498;13.480;2023-09-19T12:36:42;21.80;99.90
14682;DHT22;7429;52.498;13.480;2023-09-19T12:39:46;21.80;99.90
14682;DHT22;7429;52.498;13.480;2023-09-19T12:42:53;21.80;99.90
14682;DHT22;7429;52.498;13.480;2023-09-19T12:45:57;21.90;99.90
14682;DHT22;7429;52.498;13.480;2023-09-19T12:49:19;22.20;99.90
14682;DHT22;7429;52.498;13.480;2023-09-19T12:52:23;22.30;99.90
14682;DHT22;7429;52.498;13.480;2023-09-19T12:55:29;22.20;99.90
14682;DHT22;7429;52.498;13.480;2023-09-19T12:58:47;22.20;99.90
14682;DHT22;7429;52.498;13.480;2023-09-19T13:02:03;22.30;99.90
14682;DHT22;7429;52.498;13.480;2023-09-19T13:05:10;22.20;99.90
14682;DHT22;7429;52.498;13.480;2023-09-19T13:08:20;22.10;99.90
14682;DHT22;7429;52.498;13.480;2023-09-19T13:11:35;22.00;99.90
14682;DHT22;7429;52.498;13.480;2023-09-19T13:14:43;21.90;99.90
14682;DHT22;7429;52.498;13.480;2023-09-19T13:17:50;21.90;99.90
14682;DHT22;7429;52.498;13.480;2023-09-19T13:21:09;21.70;99.90
14682;DHT22;7429;52.498;13.480;2023-09-19T13:24:21;21.60;99.90
14682;DHT22;7429;52.498;13.480;2023-09-19T13:27:28;21.50;99.90
14682;DHT22;7429;52.498;13.480;2023-09-19T13:30:31;21.50;99.90
14682;DHT22;7429;52.498;13.480;2023-09-19T13:33:34;21.50;99.90
14682;DHT22;7429;52.498;13.480;2023-09-19T13:36:39;21.60;99.90
14682;DHT22;7429;52.498;13.480;2023-09-19T13:39:42;21.60;99.90
14682;DHT22;7429;52.498;13.480;2023-09-19T13:42:49;21.50;99.90
14682;DHT22;7429;52.498;13.480;2023-09-19T13:45:58;21.40;99.90
14682;DHT22;7429;52.498;13.480;2023-09-19T13:49:04;21.30;99.90
14682;DHT22;7429;52.498;13.480;2023-09-19T13:52:08;21.30;99.90
14682;DHT22;7429;52.498;13.480;2023-09-19T13:55:14;21.30;99.90
14682;DHT22;7429;52.498;13.480;2023-09-19T13:58:22;21.40;99.90
14682;DHT22;7429;52.498;13.480;2023-09-19T14:01:26;21.50;99.90
14682;DHT22;7429;52.498;13.480;2023-09-19T14:04:29;21.50;99.90
14682;DHT22;7429;52.498;13.480;2023-09-19T14:07:34;21.60;99.90
14682;DHT22;7429;52.498;13.480;2023-09-19T14:10:38;21.60;99.90
14682;DHT22;7429;52.498;13.480;2023-09-19T14:13:42;21.40;99.90
14682;DHT22;7429;52.498;13.480;2023-09-19T14:16:48;21.40;99.90
14682;DHT22;7429;52.498;13.480;2023-09-19T14:19:54;21.50;99.90
14682;DHT22;7429;52.498;13.480;2023-09-19T14:23:02;21.60;99.90
14682;DHT22;7429;52.498;13.480;2023-09-19T14:26:05;21.70;99.90
14682;DHT22;7429;52.498;13.480;2023-09-19T14:29:11;21.50;99.90
14682;DHT22;7429;52.498;13.480;2023-09-19T14:32:15;21.40;99.90
14682;DHT22;7429;52.498;13.480;2023-09-19T14:35:18;21.50;99.90
14682;DHT22;7429;52.498;13.480;2023-09-19T14:38:22;21.50;99.90
14682;DHT22;7429;52.498;13.480;2023-09-19T14:41:26;21.50;99.90
14682;DHT22;7429;52.498;13.480;2023-09-19T14:44:30;21.50;99.90
14682;DHT22;7429;52.498;13.480;2023-09-19T14:47:33;21.60;99.90
14682;DHT22;7429;52.498;13.480;2023-09-19T14:50:36;21.70;99.90
14682;DHT22;7429;52.498;13.480;2023-09-19T14:53:41;21.50;99.90
14682;DHT22;7429;52.498;13.480;2023-09-19T14:56:45;21.60;99.90
14682;DHT22;7429;52.498;13.480;2023-09-19T14:59:55;21.60;99.90
14682;DHT22;7429;52.498;13.480;2023-09-19T15:02:58;21.50;99.90
14682;DHT22;7429;52.498;13.480;2023-09-19T15:06:03;21.50;99.90
14682;DHT22;7429;52.498;13.480;2023-09-19T15:09:08;21.50;99.90
14682;DHT22;7429;52.498;13.480;2023-09-19T15:12:14;21.40;99.90
14682;DHT22;7429;52.498;13.480;2023-09-19T15:15:24;21.30;99.90
14682;DHT22;7429;52.498;13.480;2023-09-19T15:18:27;21.30;99.90
14682;DHT22;7429;52.498;13.480;2023-09-19T15:21:32;21.40;99.90
14682;DHT22;7429;52.498;13.480;2023-09-19T15:24:41;21.30;99.90
14682;DHT22;7429;52.498;13.480;2023-09-19T15:27:44;21.20;99.90
14682;DHT22;7429;52.498;13.480;2023-09-19T15:30:48;21.20;99.90
14682;DHT22;7429;52.498;13.480;2023-09-19T15:33:51;21.20;99.90
14682;DHT22;7429;52.498;13.480;2023-09-19T15:36:54;21.20;99.90
14682;DHT22;7429;52.498;13.480;2023-09-19T15:39:59;21.20;99.90
14682;DHT22;7429;52.498;13.480;2023-09-19T15:43:02;21.10;99.90
14682;DHT22;7429;52.498;13.480;2023-09-19T15:46:06;21.10;99.90
14682;DHT22;7429;52.498;13.480;2023-09-19T15:49:09;21.10;99.90
14682;DHT22;7429;52.498;13.480;2023-09-19T15:52:14;21.10;99.90
14682;DHT22;7429;52.498;13.480;2023-09-19T15:55:21;21.10;99.90
14682;DHT22;7429;52.498;13.480;2023-09-19T15:58:30;21.10;99.90
14682;DHT22;7429;52.498;13.480;2023-09-19T16:01:34;21.10;99.90
14682;DHT22;7429;52.498;13.480;2023-09-19T16:04:38;21.10;99.90
14682;DHT22;7429;52.498;13.480;2023-09-19T16:07:42;21.10;99.90
14682;DHT22;7429;52.498;13.480;2023-09-19T16:10:48;21.10;99.90
14682;DHT22;7429;52.498;13.480;2023-09-19T16:13:52;21.00;99.90
14682;DHT22;7429;52.498;13.480;2023-09-19T16:16:58;20.90;99.90
14682;DHT22;7429;52.498;13.480;2023-09-19T16:20:02;20.90;99.90
14682;DHT22;7429;52.498;13.480;2023-09-19T16:23:06;20.80;99.90
14682;DHT22;7429;52.498;13.480;2023-09-19T16:26:10;20.80;99.90
14682;DHT22;7429;52.498;13.480;2023-09-19T16:29:14;20.80;99.90
14682;DHT22;7429;52.498;13.480;2023-09-19T16:32:18;20.70;99.90
14682;DHT22;7429;52.498;13.480;2023-09-19T16:35:24;20.70;99.90
14682;DHT22;7429;52.498;13.480;2023-09-19T16:38:28;20.70;99.90
14682;DHT22;7429;52.498;13.480;2023-09-19T16:41:33;20.60;99.90
14682;DHT22;7429;52.498;13.480;2023-09-19T16:44:37;20.60;99.90
14682;DHT22;7429;52.498;13.480;2023-09-19T16:47:44;20.50;99.90
14682;DHT22;7429;52.498;13.480;2023-09-19T16:51:00;20.50;99.90
14682;DHT22;7429;52.498;13.480;2023-09-19T16:54:05;20.40;99.90
14682;DHT22;7429;52.498;13.480;2023-09-19T16:57:12;20.40;99.90
14682;DHT22;7429;52.498;13.480;2023-09-19T17:00:36;20.40;99.90
14682;DHT22;7429;52.498;13.480;2023-09-19T17:03:43;20.30;99.90
14682;DHT22;7429;52.498;13.480;2023-09-19T17:06:48;20.20;99.90
14682;DHT22;7429;52.498;13.480;2023-09-19T17:09:57;20.20;99.90
14682;DHT22;7429;52.498;13.480;2023-09-19T17:13:05;20.10;99.90
14682;DHT22;7429;52.498;13.480;2023-09-19T17:16:11;20.10;99.90
14682;DHT22;7429;52.498;13.480;2023-09-19T17:19:21;20.10;99.90
14682;DHT22;7429;52.498;13.480;2023-09-19T17:22:33;20.00;99.90
14682;DHT22;7429;52.498;13.480;2023-09-19T17:25:45;20.00;99.90
14682;DHT22;7429;52.498;13.480;2023-09-19T17:28:56;19.80;99.90
14682;DHT22;7429;52.498;13.480;2023-09-19T17:32:00;19.70;99.90
14682;DHT22;7429;52.498;13.480;2023-09-19T17:35:08;19.60;99.90
14682;DHT22;7429;52.498;13.480;2023-09-19T17:38:15;19.50;99.90
14682;DHT22;7429;52.498;13.480;2023-09-19T17:41:26;19.40;99.90
14682;DHT22;7429;52.498;13.480;2023-09-19T17:44:33;19.30;99.90
14682;DHT22;7429;52.498;13.480;2023-09-19T17:47:43;19.20;99.90
14682;DHT22;7429;52.498;13.480;2023-09-19T17:50:59;19.30;99.90
14682;DHT22;7429;52.498;13.480;2023-09-19T17:54:05;19.40;99.90
14682;DHT22;7429;52.498;13.480;2023-09-19T17:57:09;19.30;99.90
14682;DHT22;7429;52.498;13.480;2023-09-19T18:00:21;19.30;99.90
14682;DHT22;7429;52.498;13.480;2023-09-19T18:03:32;19.20;99.90
14682;DHT22;7429;52.498;13.480;2023-09-19T18:06:41;19.20;99.90
14682;DHT22;7429;52.498;13.480;2023-09-19T18:09:45;19.20;99.90
14682;DHT22;7429;52.498;13.480;2023-09-19T18:12:49;19.00;99.90
14682;DHT22;7429;52.498;13.480;2023-09-19T18:15:54;18.90;99.90
14682;DHT22;7429;52.498;13.480;2023-09-19T18:18:58;18.90;99.90
14682;DHT22;7429;52.498;13.480;2023-09-19T18:22:02;18.90;99.90
14682;DHT22;7429;52.498;13.480;2023-09-19T18:25:07;18.90;99.90
14682;DHT22;7429;52.498;13.480;2023-09-19T18:28:10;18.90;99.90
14682;DHT22;7429;52.498;13.480;2023-09-19T18:31:17;18.90;99.90
14682;DHT22;7429;52.498;13.480;2023-09-19T18:34:20;18.90;99.90
14682;DHT22;7429;52.498;13.480;2023-09-19T18:37:25;18.80;99.90
14682;DHT22;7429;52.498;13.480;2023-09-19T18:40:29;18.80;99.90
14682;DHT22;7429;52.498;13.480;2023-09-19T18:43:32;18.70;99.90
14682;DHT22;7429;52.498;13.480;2023-09-19T18:46:40;18.70;99.90
14682;DHT22;7429;52.498;13.480;2023-09-19T18:49:46;18.60;99.90
14682;DHT22;7429;52.498;13.480;2023-09-19T18:52:50;18.50;99.90
14682;DHT22;7429;52.498;13.480;2023-09-19T18:56:02;18.40;99.90
14682;DHT22;7429;52.498;13.480;2023-09-19T18:59:07;18.40;99.90
14682;DHT22;7429;52.498;13.480;2023-09-19T19:02:11;18.30;99.90
14682;DHT22;7429;52.498;13.480;2023-09-19T19:05:15;18.30;99.90
14682;DHT22;7429;52.498;13.480;2023-09-19T19:08:18;18.40;99.90
14682;DHT22;7429;52.498;13.480;2023-09-19T19:11:22;18.40;99.90
14682;DHT22;7429;52.498;13.480;2023-09-19T19:14:30;18.50;99.90
14682;DHT22;7429;52.498;13.480;2023-09-19T19:17:35;18.50;99.90
14682;DHT22;7429;52.498;13.480;2023-09-19T19:20:40;18.50;99.90
14682;DHT22;7429;52.498;13.480;2023-09-19T19:23:44;18.50;99.90
14682;DHT22;7429;52.498;13.480;2023-09-19T19:26:47;18.50;99.90
14682;DHT22;7429;52.498;13.480;2023-09-19T19:29:51;18.50;99.90
14682;DHT22;7429;52.498;13.480;2023-09-19T19:32:55;18.50;99.90
14682;DHT22;7429;52.498;13.480;2023-09-19T19:36:05;18.40;99.90
14682;DHT22;7429;52.498;13.480;2023-09-19T19:39:09;18.50;99.90
14682;DHT22;7429;52.498;13.480;2023-09-19T19:42:14;18.50;99.90
14682;DHT22;7429;52.498;13.480;2023-09-19T19:45:18;18.50;99.90